Keret — UAEH — position and weather

sailwx.info

Track history (hours):
 
Tides and Currents Weather Stations Pressure Air Temp Water Temp Dewpoint Dewpoint Depression Visibility Wind Speed Wind Dir Waves Ship Positions

Keret

Last reported at 2015-Mar-02 18:33 UTC. Time now 2015-Mar-02 19:03 UTC.
Position N 50°45' E 000°49'.

Length 82 m; draft 4.3 m.

Type: Cargo ship. MMSI: 273333000.

Date/timePositionNaut miles runAvg speedWind from/ knotsBaromVisibWave heightAir tempDewpointWater temp
2015-Mar-02 18:33N 50°45' E 000°49'24 7.7
2015-Mar-02 15:27N 50°60' E 001°20'8 9.3
2015-Mar-02 14:34N 51°05' E 001°30'8 8.4
2015-Mar-02 13:34N 51°12' E 001°37'14 0.3
2015-Feb-28 11:33N 51°24' E 001°25'7 7.0
2015-Feb-28 10:33N 51°29' E 001°33'8 7.8
2015-Feb-28 09:33N 51°33' E 001°44'7 7.4
2015-Feb-28 08:33N 51°37' E 001°54'75 9.0
2015-Feb-28 00:13N 52°04' E 003°47'6 7.9
2015-Feb-27 23:30N 52°02' E 003°56'1010.4
2015-Feb-27 22:33N 51°57' E 004°10'8 8.5
2015-Feb-27 21:34N 51°52' E 004°20'9 8.5
2015-Feb-27 20:33N 51°49' E 004°34'7 7.4
2015-Feb-27 19:34N 51°42' E 004°36'0 0.4
2015-Feb-27 18:29N 51°41' E 004°36'0 0.0
2015-Feb-27 17:29N 51°41' E 004°36'0 0.0
2015-Feb-27 16:32N 51°41' E 004°36'0 0.0
2015-Feb-27 15:32N 51°41' E 004°36'0 0.0
2015-Feb-27 14:32N 51°41' E 004°36'0 0.0
2015-Feb-27 13:26N 51°41' E 004°36'0 0.0
2015-Feb-27 12:29N 51°41' E 004°36'0 0.0
2015-Feb-27 09:26N 51°41' E 004°36'0 0.0
2015-Feb-27 08:32N 51°41' E 004°36'0 0.0
2015-Feb-27 07:29N 51°41' E 004°36'0 0.0
2015-Feb-27 06:32N 51°41' E 004°36'0 0.0
2015-Feb-27 05:23N 51°41' E 004°36'0 0.0
2015-Feb-27 04:26N 51°41' E 004°36'0 0.0
2015-Feb-27 03:29N 51°41' E 004°36'0 0.0
2015-Feb-27 02:20N 51°41' E 004°36'0 0.0
2015-Feb-27 01:32N 51°41' E 004°36'0 0.0
2015-Feb-27 00:08N 51°41' E 004°36'0 0.0
2015-Feb-26 23:20N 51°41' E 004°36'0 0.0
2015-Feb-26 22:26N 51°41' E 004°36'0 0.0
2015-Feb-26 21:26N 51°41' E 004°36'0 0.0
2015-Feb-26 20:17N 51°41' E 004°36'0 0.0
2015-Feb-26 17:11N 51°41' E 004°36'0 0.0
2015-Feb-26 15:33N 51°41' E 004°36'0 0.0
2015-Feb-26 14:33N 51°41' E 004°36'0 0.0
2015-Feb-26 13:33N 51°41' E 004°36'0 0.0
2015-Feb-26 12:33N 51°41' E 004°36'0 0.0
2015-Feb-26 11:33N 51°41' E 004°36'0 0.0
2015-Feb-26 10:33N 51°41' E 004°36'5 4.6
2015-Feb-26 09:33N 51°46' E 004°38'7 7.0
2015-Feb-26 08:34N 51°50' E 004°28'7 6.8
2015-Feb-26 07:33N 51°52' E 004°18'3 3.0
2015-Feb-26 06:33N 51°54' E 004°14'5 5.4
2015-Feb-26 05:33N 51°58' E 004°08'9 9.2
2015-Feb-26 04:33N 51°59' E 003°53'5 5.3
2015-Feb-26 03:31N 51°57' E 003°45'0 0.2
2015-Feb-26 02:08N 51°57' E 003°45'0 0.0
2015-Feb-26 01:11N 51°57' E 003°45'0 0.0
2015-Feb-25 23:17N 51°57' E 003°45'0 0.0
2015-Feb-25 22:20N 51°57' E 003°45'0 0.0
2015-Feb-25 21:05N 51°57' E 003°45'0 0.0
2015-Feb-25 20:08N 51°57' E 003°45'0 0.0
2015-Feb-25 19:20N 51°57' E 003°45'0 0.0
2015-Feb-25 17:26N 51°57' E 003°45'0 0.0
2015-Feb-25 14:20N 51°57' E 003°45'0 0.0
2015-Feb-25 11:17N 51°57' E 003°45'0 0.0
2015-Feb-25 09:29N 51°57' E 003°45'0 0.0
2015-Feb-25 08:30N 51°57' E 003°45'0 0.0
2015-Feb-25 07:13N 51°57' E 003°45'3 4.2
2015-Feb-25 06:32N 51°58' E 003°41'1110.9
2015-Feb-25 05:31N 51°56' E 003°23'48 8.7
2015-Feb-25 00:04N 51°52' E 002°06'5 8.4
2015-Feb-24 23:30N 51°50' E 001°59'8 8.8
2015-Feb-24 22:33N 51°49' E 001°46'1110.5
2015-Feb-24 21:33N 51°54' E 001°31'9 8.6
2015-Feb-24 20:33N 51°57' E 001°18'7 7.1
2015-Feb-24 19:34N 52°02' E 001°09'0 0.5
2015-Feb-24 18:29N 52°03' E 001°10'0 0.0
2015-Feb-24 17:28N 52°03' E 001°10'0 0.0
2015-Feb-24 16:31N 52°03' E 001°10'0 0.0
2015-Feb-24 15:28N 52°03' E 001°10'0 0.0
2015-Feb-24 14:28N 52°03' E 001°10'0 0.0
2015-Feb-24 13:25N 52°03' E 001°10'0 0.0
2015-Feb-24 12:32N 52°03' E 001°10'0 0.0
2015-Feb-24 11:31N 52°03' E 001°10'0 0.0
2015-Feb-24 10:22N 52°03' E 001°10'0 0.0
2015-Feb-24 09:22N 52°03' E 001°10'0 0.0
2015-Feb-24 08:25N 52°03' E 001°10'0 0.0
2015-Feb-24 07:31N 52°03' E 001°10'0 0.0
2015-Feb-24 06:30N 52°03' E 001°10'0 0.0
2015-Feb-24 05:33N 52°03' E 001°10'0 0.0
2015-Feb-24 04:33N 52°03' E 001°10'0 0.0
2015-Feb-24 03:28N 52°03' E 001°10'0 0.0
2015-Feb-24 02:32N 52°03' E 001°10'0 0.0
2015-Feb-24 01:32N 52°03' E 001°10'0 0.0
2015-Feb-24 00:32N 52°03' E 001°10'0 0.0
2015-Feb-23 23:32N 52°03' E 001°10'0 0.0
2015-Feb-23 22:20N 52°03' E 001°10'0 0.0
2015-Feb-23 21:17N 52°03' E 001°10'0 0.0
2015-Feb-23 20:29N 52°03' E 001°10'0 0.0
2015-Feb-23 19:29N 52°03' E 001°10'0 0.0
2015-Feb-23 18:25N 52°03' E 001°10'0 0.0
2015-Feb-23 17:25N 52°03' E 001°10'0 0.0
2015-Feb-23 16:31N 52°03' E 001°10'0 0.0
2015-Feb-23 15:28N 52°03' E 001°10'0 0.0
2015-Feb-23 14:31N 52°03' E 001°10'0 0.0
2015-Feb-23 12:31N 52°03' E 001°10'0 0.0
2015-Feb-23 11:28N 52°03' E 001°10'0 0.0
2015-Feb-23 09:10N 52°03' E 001°10'0 0.0
2015-Feb-23 08:28N 52°03' E 001°10'0 0.0
2015-Feb-22 01:33N 52°02' E 001°09'7 6.5
2015-Feb-22 00:33N 51°58' E 001°17'11 4.6
2015-Feb-21 22:12N 51°54' E 001°34'9 5.2
2015-Feb-21 20:24N 51°50' E 001°47'6 5.8
2015-Feb-21 19:27N 51°44' E 001°49'5 5.9
2015-Feb-21 18:33N 51°39' E 001°50'6 5.5
2015-Feb-21 17:33N 51°34' E 001°49'6 6.0
2015-Feb-21 16:34N 51°28' E 001°48'7 6.9
2015-Feb-21 15:33N 51°21' E 001°45'8 8.0
2015-Feb-21 14:33N 51°14' E 001°40'1010.3
2015-Feb-21 13:33N 51°04' E 001°37'  
Track history (hours):
 
Tides and Currents Weather Stations Pressure Air Temp Water Temp Dewpoint Dewpoint Depression Visibility Wind Speed Wind Dir Waves Ship Positions

Keret

Last reported at 2015-Mar-02 18:33 UTC. Time now 2015-Mar-02 19:03 UTC.
Position N 50°45' E 000°49'.

Length 82 m; draft 4.3 m.

Type: Cargo ship. MMSI: 273333000.

Date/timePositionNaut miles runAvg speedWind from/ knotsBaromVisibWave heightAir tempDewpointWater temp
2015-Mar-02 18:33N 50°45' E 000°49'24 7.7
2015-Mar-02 15:27N 50°60' E 001°20'8 9.3
2015-Mar-02 14:34N 51°05' E 001°30'8 8.4
2015-Mar-02 13:34N 51°12' E 001°37'14 0.3
2015-Feb-28 11:33N 51°24' E 001°25'7 7.0
2015-Feb-28 10:33N 51°29' E 001°33'8 7.8
2015-Feb-28 09:33N 51°33' E 001°44'7 7.4
2015-Feb-28 08:33N 51°37' E 001°54'75 9.0
2015-Feb-28 00:13N 52°04' E 003°47'6 7.9
2015-Feb-27 23:30N 52°02' E 003°56'1010.4
2015-Feb-27 22:33N 51°57' E 004°10'8 8.5
2015-Feb-27 21:34N 51°52' E 004°20'9 8.5
2015-Feb-27 20:33N 51°49' E 004°34'7 7.4
2015-Feb-27 19:34N 51°42' E 004°36'0 0.4
2015-Feb-27 18:29N 51°41' E 004°36'0 0.0
2015-Feb-27 17:29N 51°41' E 004°36'0 0.0
2015-Feb-27 16:32N 51°41' E 004°36'0 0.0
2015-Feb-27 15:32N 51°41' E 004°36'0 0.0
2015-Feb-27 14:32N 51°41' E 004°36'0 0.0
2015-Feb-27 13:26N 51°41' E 004°36'0 0.0
2015-Feb-27 12:29N 51°41' E 004°36'0 0.0
2015-Feb-27 09:26N 51°41' E 004°36'0 0.0
2015-Feb-27 08:32N 51°41' E 004°36'0 0.0
2015-Feb-27 07:29N 51°41' E 004°36'0 0.0
2015-Feb-27 06:32N 51°41' E 004°36'0 0.0
2015-Feb-27 05:23N 51°41' E 004°36'0 0.0
2015-Feb-27 04:26N 51°41' E 004°36'0 0.0
2015-Feb-27 03:29N 51°41' E 004°36'0 0.0
2015-Feb-27 02:20N 51°41' E 004°36'0 0.0
2015-Feb-27 01:32N 51°41' E 004°36'0 0.0
2015-Feb-27 00:08N 51°41' E 004°36'0 0.0
2015-Feb-26 23:20N 51°41' E 004°36'0 0.0
2015-Feb-26 22:26N 51°41' E 004°36'0 0.0
2015-Feb-26 21:26N 51°41' E 004°36'0 0.0
2015-Feb-26 20:17N 51°41' E 004°36'0 0.0
2015-Feb-26 17:11N 51°41' E 004°36'0 0.0
2015-Feb-26 15:33N 51°41' E 004°36'0 0.0
2015-Feb-26 14:33N 51°41' E 004°36'0 0.0
2015-Feb-26 13:33N 51°41' E 004°36'0 0.0
2015-Feb-26 12:33N 51°41' E 004°36'0 0.0
2015-Feb-26 11:33N 51°41' E 004°36'0 0.0
2015-Feb-26 10:33N 51°41' E 004°36'5 4.6
2015-Feb-26 09:33N 51°46' E 004°38'7 7.0
2015-Feb-26 08:34N 51°50' E 004°28'7 6.8
2015-Feb-26 07:33N 51°52' E 004°18'3 3.0
2015-Feb-26 06:33N 51°54' E 004°14'5 5.4
2015-Feb-26 05:33N 51°58' E 004°08'9 9.2
2015-Feb-26 04:33N 51°59' E 003°53'5 5.3
2015-Feb-26 03:31N 51°57' E 003°45'0 0.2
2015-Feb-26 02:08N 51°57' E 003°45'0 0.0
2015-Feb-26 01:11N 51°57' E 003°45'0 0.0
2015-Feb-25 23:17N 51°57' E 003°45'0 0.0
2015-Feb-25 22:20N 51°57' E 003°45'0 0.0
2015-Feb-25 21:05N 51°57' E 003°45'0 0.0
2015-Feb-25 20:08N 51°57' E 003°45'0 0.0
2015-Feb-25 19:20N 51°57' E 003°45'0 0.0
2015-Feb-25 17:26N 51°57' E 003°45'0 0.0
2015-Feb-25 14:20N 51°57' E 003°45'0 0.0
2015-Feb-25 11:17N 51°57' E 003°45'0 0.0
2015-Feb-25 09:29N 51°57' E 003°45'0 0.0
2015-Feb-25 08:30N 51°57' E 003°45'0 0.0
2015-Feb-25 07:13N 51°57' E 003°45'3 4.2
2015-Feb-25 06:32N 51°58' E 003°41'1110.9
2015-Feb-25 05:31N 51°56' E 003°23'48 8.7
2015-Feb-25 00:04N 51°52' E 002°06'5 8.4
2015-Feb-24 23:30N 51°50' E 001°59'8 8.8
2015-Feb-24 22:33N 51°49' E 001°46'1110.5
2015-Feb-24 21:33N 51°54' E 001°31'9 8.6
2015-Feb-24 20:33N 51°57' E 001°18'7 7.1
2015-Feb-24 19:34N 52°02' E 001°09'0 0.5
2015-Feb-24 18:29N 52°03' E 001°10'0 0.0
2015-Feb-24 17:28N 52°03' E 001°10'0 0.0
2015-Feb-24 16:31N 52°03' E 001°10'0 0.0
2015-Feb-24 15:28N 52°03' E 001°10'0 0.0
2015-Feb-24 14:28N 52°03' E 001°10'0 0.0
2015-Feb-24 13:25N 52°03' E 001°10'0 0.0
2015-Feb-24 12:32N 52°03' E 001°10'0 0.0
2015-Feb-24 11:31N 52°03' E 001°10'0 0.0
2015-Feb-24 10:22N 52°03' E 001°10'0 0.0
2015-Feb-24 09:22N 52°03' E 001°10'0 0.0
2015-Feb-24 08:25N 52°03' E 001°10'0 0.0
2015-Feb-24 07:31N 52°03' E 001°10'0 0.0
2015-Feb-24 06:30N 52°03' E 001°10'0 0.0
2015-Feb-24 05:33N 52°03' E 001°10'0 0.0
2015-Feb-24 04:33N 52°03' E 001°10'0 0.0
2015-Feb-24 03:28N 52°03' E 001°10'0 0.0
2015-Feb-24 02:32N 52°03' E 001°10'0 0.0
2015-Feb-24 01:32N 52°03' E 001°10'0 0.0
2015-Feb-24 00:32N 52°03' E 001°10'0 0.0
2015-Feb-23 23:32N 52°03' E 001°10'0 0.0
2015-Feb-23 22:20N 52°03' E 001°10'0 0.0
2015-Feb-23 21:17N 52°03' E 001°10'0 0.0
2015-Feb-23 20:29N 52°03' E 001°10'0 0.0
2015-Feb-23 19:29N 52°03' E 001°10'0 0.0
2015-Feb-23 18:25N 52°03' E 001°10'0 0.0
2015-Feb-23 17:25N 52°03' E 001°10'0 0.0
2015-Feb-23 16:31N 52°03' E 001°10'0 0.0
2015-Feb-23 15:28N 52°03' E 001°10'0 0.0
2015-Feb-23 14:31N 52°03' E 001°10'0 0.0
2015-Feb-23 12:31N 52°03' E 001°10'0 0.0
2015-Feb-23 11:28N 52°03' E 001°10'0 0.0
2015-Feb-23 09:10N 52°03' E 001°10'0 0.0
2015-Feb-23 08:28N 52°03' E 001°10'0 0.0
2015-Feb-22 01:33N 52°02' E 001°09'7 6.5
2015-Feb-22 00:33N 51°58' E 001°17'11 4.6
2015-Feb-21 22:12N 51°54' E 001°34'9 5.2
2015-Feb-21 20:24N 51°50' E 001°47'6 5.8
2015-Feb-21 19:27N 51°44' E 001°49'5 5.9
2015-Feb-21 18:33N 51°39' E 001°50'6 5.5
2015-Feb-21 17:33N 51°34' E 001°49'6 6.0
2015-Feb-21 16:34N 51°28' E 001°48'7 6.9
2015-Feb-21 15:33N 51°21' E 001°45'8 8.0
2015-Feb-21 14:33N 51°14' E 001°40'1010.3
2015-Feb-21 13:33N 51°04' E 001°37'  

Dump ship's entire track history